createdAt,value
2018-02-13T00:02:20.139Z,10.73
2018-02-13T00:04:47.570Z,11.23
2018-02-13T00:07:15.048Z,11.10
2018-02-13T00:09:42.777Z,10.23
2018-02-13T00:12:10.271Z,10.70
2018-02-13T00:14:37.883Z,11.30
2018-02-13T00:17:05.414Z,10.70
2018-02-13T00:19:32.788Z,10.83
2018-02-13T00:22:00.159Z,10.47
2018-02-13T00:24:27.548Z,10.57
2018-02-13T00:26:54.912Z,10.83
2018-02-13T00:29:22.426Z,10.70
2018-02-13T00:31:49.914Z,10.33
2018-02-13T00:34:17.671Z,10.53
2018-02-13T00:36:45.150Z,10.13
2018-02-13T00:39:12.664Z,10.57
2018-02-13T00:41:40.040Z,10.10
2018-02-13T00:44:07.568Z,10.80
2018-02-13T00:46:34.985Z,9.77
2018-02-13T00:49:02.355Z,9.40
2018-02-13T00:51:29.828Z,10.10
2018-02-13T00:53:57.246Z,9.53
2018-02-13T00:56:24.732Z,9.80
2018-02-13T00:58:52.091Z,9.53
2018-02-13T01:01:19.538Z,9.83
2018-02-13T01:03:46.962Z,9.70
2018-02-13T01:06:14.376Z,9.50
2018-02-13T01:08:41.771Z,9.80
2018-02-13T01:11:09.239Z,9.97
2018-02-13T01:13:36.647Z,9.20
2018-02-13T01:16:04.058Z,9.27
2018-02-13T01:18:31.508Z,9.30
2018-02-13T01:20:59.138Z,10.00
2018-02-13T01:23:26.519Z,9.77
2018-02-13T01:25:53.925Z,9.67
2018-02-13T01:28:21.404Z,9.67
2018-02-13T01:30:48.836Z,9.00
2018-02-13T01:33:16.214Z,9.07
2018-02-13T01:35:43.647Z,9.70
2018-02-13T01:38:11.066Z,8.20
2018-02-13T01:40:38.583Z,9.00
2018-02-13T01:43:05.965Z,8.87
2018-02-13T01:45:33.423Z,9.07
2018-02-13T01:48:00.924Z,9.63
2018-02-13T01:50:28.300Z,9.50
2018-02-13T01:52:55.683Z,9.20
2018-02-13T01:55:23.049Z,9.20
2018-02-13T01:57:50.524Z,8.80
2018-02-13T02:00:18.347Z,8.37
2018-02-13T02:02:45.712Z,8.50
2018-02-13T02:05:13.341Z,8.17
2018-02-13T02:07:40.793Z,8.43
2018-02-13T02:10:08.161Z,7.70
2018-02-13T02:12:35.562Z,7.63
2018-02-13T02:15:02.960Z,8.00
2018-02-13T02:17:30.384Z,7.37
2018-02-13T02:19:57.819Z,8.23
2018-02-13T02:22:25.217Z,8.07
2018-02-13T02:24:52.572Z,7.37
2018-02-13T02:27:20.139Z,7.70
2018-02-13T02:29:47.948Z,7.53
2018-02-13T02:32:15.396Z,6.93
2018-02-13T02:34:42.986Z,6.97
2018-02-13T02:37:10.411Z,6.97
2018-02-13T02:39:37.766Z,6.63
2018-02-13T02:42:05.145Z,7.03
2018-02-13T02:44:32.671Z,7.20
2018-02-13T02:47:00.067Z,6.80
2018-02-13T02:49:27.489Z,6.87
2018-02-13T02:51:54.938Z,7.17
2018-02-13T02:54:22.424Z,6.80
2018-02-13T02:56:50.048Z,6.93
2018-02-13T02:59:17.567Z,6.80
2018-02-13T03:01:45.052Z,6.90
2018-02-13T03:04:12.509Z,6.83
2018-02-13T03:06:39.987Z,6.47
2018-02-13T03:09:07.373Z,6.73
2018-02-13T03:11:34.919Z,7.30
2018-02-13T03:14:02.333Z,7.00
2018-02-13T03:16:29.712Z,7.53
2018-02-13T03:18:57.098Z,7.63
2018-02-13T03:21:24.449Z,7.70
2018-02-13T03:23:51.989Z,6.70
2018-02-13T03:26:19.473Z,6.70
2018-02-13T03:28:47.189Z,6.93
2018-02-13T03:31:14.648Z,7.13
2018-02-13T03:33:42.017Z,7.60
2018-02-13T03:36:09.621Z,7.73
2018-02-13T03:38:37.020Z,7.63
2018-02-13T03:41:04.423Z,7.50
2018-02-13T03:43:31.800Z,7.87
2018-02-13T03:45:59.217Z,7.50
2018-02-13T03:48:26.562Z,7.63
2018-02-13T03:50:54.063Z,7.70
2018-02-13T03:53:21.546Z,7.97
2018-02-13T03:55:48.958Z,7.90
2018-02-13T03:58:16.441Z,8.00
2018-02-13T04:00:43.879Z,8.00
2018-02-13T04:03:11.303Z,8.00
2018-02-13T04:05:38.715Z,8.20
2018-02-13T04:08:06.185Z,9.40
2018-02-13T04:10:33.890Z,10.03
2018-02-13T04:15:34.633Z,10.50
2018-02-13T04:18:02.050Z,10.30
2018-02-13T04:20:29.417Z,10.10
2018-02-13T04:22:56.812Z,9.93
2018-02-13T04:25:24.196Z,9.63
2018-02-13T04:27:51.677Z,31.37
2018-02-13T04:30:19.410Z,11.47
2018-02-13T04:32:46.808Z,12.83
2018-02-13T04:35:15.224Z,11.00
2018-02-13T04:37:42.615Z,9.97
2018-02-13T04:40:10.362Z,11.47
2018-02-13T04:42:37.767Z,10.30
2018-02-13T04:45:05.302Z,10.87
2018-02-13T04:47:32.707Z,9.97
2018-02-13T04:50:00.485Z,10.43
2018-02-13T04:52:28.122Z,10.30
2018-02-13T04:54:55.544Z,10.60
2018-02-13T04:57:23.069Z,10.10
2018-02-13T04:59:50.431Z,10.53
2018-02-13T05:02:17.863Z,10.07
2018-02-13T05:04:45.255Z,9.63
2018-02-13T05:07:12.662Z,9.83
2018-02-13T05:09:40.094Z,10.00
2018-02-13T05:12:07.465Z,9.93
2018-02-13T05:14:35.014Z,10.20
2018-02-13T05:17:02.574Z,9.53
2018-02-13T05:19:30.297Z,9.47
2018-02-13T05:21:57.656Z,9.83
2018-02-13T05:24:25.048Z,9.53
2018-02-13T05:26:52.405Z,9.47
2018-02-13T05:29:19.858Z,9.30
2018-02-13T05:31:47.366Z,9.07
2018-02-13T05:34:14.767Z,9.00
2018-02-13T05:36:42.174Z,8.33
2018-02-13T05:39:09.557Z,8.60
2018-02-13T05:41:36.938Z,8.53
2018-02-13T05:44:04.337Z,8.93
2018-02-13T05:46:31.706Z,8.90
2018-02-13T05:48:59.085Z,8.90
2018-02-13T05:51:26.578Z,9.37
2018-02-13T05:53:54.088Z,9.97
2018-02-13T05:56:21.649Z,9.20
2018-02-13T05:58:49.148Z,8.37
2018-02-13T06:01:16.548Z,8.23
2018-02-13T06:03:43.949Z,8.33
2018-02-13T06:06:11.465Z,8.43
2018-02-13T06:08:38.887Z,8.37
2018-02-13T06:11:06.321Z,8.00
2018-02-13T06:13:33.687Z,8.67
2018-02-13T06:16:01.047Z,7.57
2018-02-13T06:18:28.605Z,8.00
2018-02-13T06:20:56.026Z,7.90
2018-02-13T06:23:23.468Z,7.33
2018-02-13T06:25:50.908Z,8.38
2018-02-13T06:28:18.373Z,8.13
2018-02-13T06:30:45.880Z,8.57
2018-02-13T06:33:13.298Z,8.47
2018-02-13T06:35:40.783Z,7.93
2018-02-13T06:38:08.262Z,8.07
2018-02-13T06:40:35.676Z,8.30
2018-02-13T06:43:03.133Z,8.43
2018-02-13T06:45:30.531Z,9.30
2018-02-13T06:47:58.111Z,8.67
2018-02-13T06:50:25.579Z,9.10
2018-02-13T06:52:52.987Z,9.40
2018-02-13T06:55:20.489Z,10.10
2018-02-13T06:57:47.983Z,10.23
2018-02-13T07:00:15.381Z,11.10
2018-02-13T07:02:42.803Z,10.03
2018-02-13T07:05:10.491Z,10.50
2018-02-13T07:07:39.285Z,10.63
2018-02-13T07:10:06.686Z,10.53
2018-02-13T07:12:35.353Z,11.77
2018-02-13T07:15:02.862Z,11.83
2018-02-13T07:17:30.313Z,11.73
2018-02-13T07:19:57.711Z,11.10
2018-02-13T07:22:25.422Z,11.90
2018-02-13T07:24:53.140Z,11.97
2018-02-13T07:27:22.927Z,11.27
2018-02-13T07:29:50.432Z,12.27
2018-02-13T07:32:18.051Z,11.70
2018-02-13T07:34:45.546Z,11.23
2018-02-13T07:37:13.139Z,12.17
2018-02-13T07:39:40.764Z,12.23
2018-02-13T07:42:08.234Z,11.60
2018-02-13T07:44:36.232Z,12.07
2018-02-13T07:47:03.728Z,12.23
2018-02-13T07:49:31.210Z,12.10
2018-02-13T07:51:58.850Z,11.70
2018-02-13T07:54:26.728Z,11.83
2018-02-13T07:56:54.388Z,11.37
2018-02-13T07:59:22.224Z,11.40
2018-02-13T08:01:50.022Z,12.67
2018-02-13T08:04:17.806Z,11.47
2018-02-13T08:06:45.549Z,12.40
2018-02-13T08:09:13.055Z,12.33
2018-02-13T08:11:40.519Z,11.87
2018-02-13T08:14:08.014Z,12.27
2018-02-13T08:16:35.568Z,11.97
2018-02-13T08:19:03.576Z,11.63
2018-02-13T08:21:31.191Z,11.10
2018-02-13T08:23:58.707Z,11.27
2018-02-13T08:26:26.349Z,11.27
2018-02-13T08:28:55.953Z,11.27
2018-02-13T08:31:23.548Z,11.60
2018-02-13T08:33:51.844Z,10.67
2018-02-13T08:36:22.342Z,10.67
2018-02-13T08:38:53.627Z,10.63
2018-02-13T08:41:23.436Z,9.93
2018-02-13T08:43:51.086Z,10.53
2018-02-13T08:46:22.549Z,10.80
2018-02-13T08:48:52.829Z,9.83
2018-02-13T08:51:24.309Z,9.60
2018-02-13T08:53:52.023Z,9.70
2018-02-13T08:56:19.476Z,9.07
2018-02-13T08:58:52.911Z,9.67
2018-02-13T09:01:20.742Z,9.63
2018-02-13T09:03:48.439Z,9.23
2018-02-13T09:06:24.865Z,9.77
2018-02-13T09:08:54.635Z,9.33
2018-02-13T09:11:22.248Z,9.40
2018-02-13T09:13:50.985Z,9.23
2018-02-13T09:16:20.715Z,9.10
2018-02-13T09:18:51.962Z,9.43
2018-02-13T09:21:20.492Z,8.97
2018-02-13T09:23:48.199Z,8.90
2018-02-13T09:26:15.554Z,8.43
2018-02-13T09:28:51.529Z,8.40
2018-02-13T09:31:19.743Z,8.83
2018-02-13T09:33:47.332Z,8.60
2018-02-13T09:36:14.748Z,8.07
2018-02-13T09:38:42.150Z,8.50
2018-02-13T09:41:09.772Z,7.80
2018-02-13T09:43:37.506Z,7.67
2018-02-13T09:46:05.006Z,7.47
2018-02-13T09:48:32.354Z,8.13
2018-02-13T09:51:00.075Z,7.83
2018-02-13T09:53:27.442Z,7.70
2018-02-13T09:55:54.854Z,7.60
2018-02-13T09:58:22.202Z,7.13
2018-02-13T10:00:49.624Z,7.10
2018-02-13T10:03:17.078Z,7.77
2018-02-13T10:05:45.228Z,6.83
2018-02-13T10:08:14.325Z,7.43
2018-02-13T10:10:42.072Z,7.33
2018-02-13T10:13:10.364Z,6.83
2018-02-13T10:15:41.167Z,7.37
2018-02-13T10:18:14.511Z,6.90
2018-02-13T10:20:43.592Z,7.70
2018-02-13T10:23:11.057Z,7.30
2018-02-13T10:25:38.468Z,7.40
2018-02-13T10:28:05.822Z,7.33
2018-02-13T10:30:33.234Z,6.73
2018-02-13T10:33:00.658Z,6.73
2018-02-13T10:35:28.103Z,6.93
2018-02-13T10:37:55.494Z,6.90
2018-02-13T10:40:22.898Z,6.80
2018-02-13T10:42:50.270Z,7.00
2018-02-13T10:45:17.695Z,6.67
2018-02-13T10:47:45.052Z,7.03
2018-02-13T10:50:13.714Z,7.20
2018-02-13T10:52:41.221Z,6.73
2018-02-13T10:55:08.598Z,7.20
2018-02-13T10:57:38.841Z,7.17
2018-02-13T11:00:06.354Z,6.70
2018-02-13T11:02:33.799Z,7.23
2018-02-13T11:05:01.421Z,6.77
2018-02-13T11:07:29.286Z,6.87
2018-02-13T11:09:57.014Z,7.10
2018-02-13T11:12:25.374Z,6.83
2018-02-13T11:14:52.872Z,7.33
2018-02-13T11:17:20.271Z,7.23
2018-02-13T11:19:51.208Z,7.17
2018-02-13T11:22:18.671Z,6.63
2018-02-13T11:24:46.205Z,6.70
2018-02-13T11:27:15.054Z,7.07
2018-02-13T11:29:42.542Z,6.77
2018-02-13T11:32:09.939Z,6.60
2018-02-13T11:34:37.385Z,6.50
2018-02-13T11:37:04.804Z,7.00
2018-02-13T11:39:32.200Z,6.93
2018-02-13T11:41:59.624Z,6.60
2018-02-13T11:44:27.042Z,6.93
2018-02-13T11:46:54.581Z,6.77
2018-02-13T11:49:22.022Z,7.67
2018-02-13T11:51:49.447Z,7.37
2018-02-13T11:54:18.385Z,7.00
2018-02-13T11:56:45.909Z,7.00
2018-02-13T11:59:13.713Z,7.20
2018-02-13T12:01:41.225Z,6.93
2018-02-13T12:04:08.745Z,6.83
2018-02-13T12:06:36.449Z,6.90
2018-02-13T12:09:04.010Z,7.63
2018-02-13T12:11:31.472Z,7.03
2018-02-13T12:13:59.483Z,8.03
2018-02-13T12:16:27.153Z,7.53
2018-02-13T12:18:54.744Z,7.33
2018-02-13T12:21:22.103Z,8.20
2018-02-13T12:23:50.379Z,7.60
2018-02-13T12:26:19.057Z,7.87
2018-02-13T12:28:46.476Z,7.87
2018-02-13T12:31:13.835Z,7.63
2018-02-13T12:33:41.196Z,8.40
2018-02-13T12:36:08.578Z,8.27
2018-02-13T12:38:36.403Z,7.97
2018-02-13T12:41:03.932Z,8.30
2018-02-13T12:43:31.312Z,8.10
2018-02-13T12:45:58.761Z,7.43
2018-02-13T12:48:26.168Z,7.93
2018-02-13T12:50:53.614Z,7.87
2018-02-13T12:53:21.160Z,8.13
2018-02-13T12:55:48.549Z,8.40
2018-02-13T12:58:15.954Z,8.13
2018-02-13T13:00:43.336Z,8.03
2018-02-13T13:03:10.787Z,8.27
2018-02-13T13:05:38.182Z,8.00
2018-02-13T13:08:05.686Z,8.30
2018-02-13T13:10:33.034Z,8.40
2018-02-13T13:13:00.547Z,8.57
2018-02-13T13:15:28.043Z,8.47
2018-02-13T13:17:55.477Z,8.37
2018-02-13T13:20:22.841Z,8.00
2018-02-13T13:22:50.230Z,8.13
2018-02-13T13:25:18.433Z,7.93
2018-02-13T13:27:45.837Z,8.33
2018-02-13T13:30:17.321Z,8.37
2018-02-13T13:32:44.782Z,7.47
2018-02-13T13:35:12.217Z,7.83
2018-02-13T13:37:39.751Z,7.80
2018-02-13T13:40:07.119Z,8.53
2018-02-13T13:42:35.787Z,7.60
2018-02-13T13:47:37.618Z,8.43
2018-02-13T13:50:05.353Z,7.57
2018-02-13T13:52:32.778Z,8.00
2018-02-13T13:55:00.932Z,8.67
2018-02-13T13:57:28.442Z,8.03
2018-02-13T13:59:55.853Z,8.40
2018-02-13T14:02:23.358Z,8.50
2018-02-13T14:04:52.595Z,8.60
2018-02-13T14:07:20.084Z,8.17
2018-02-13T14:09:47.741Z,8.83
2018-02-13T14:12:17.785Z,8.43
2018-02-13T14:14:47.727Z,8.93
2018-02-13T14:17:15.290Z,8.30
2018-02-13T14:19:42.664Z,8.63
2018-02-13T14:22:10.082Z,8.33
2018-02-13T14:24:39.442Z,8.00
2018-02-13T14:27:06.980Z,8.63
2018-02-13T14:29:35.950Z,8.27
2018-02-13T14:32:03.840Z,9.10
2018-02-13T14:34:32.012Z,9.37
2018-02-13T14:36:59.498Z,9.37
2018-02-13T14:39:26.908Z,9.70
2018-02-13T14:41:54.717Z,9.47
2018-02-13T14:44:22.259Z,8.87
2018-02-13T14:46:49.638Z,9.53
2018-02-13T14:49:17.154Z,9.23
2018-02-13T14:51:44.598Z,9.17
2018-02-13T14:54:11.994Z,9.57
2018-02-13T14:56:39.961Z,9.83
2018-02-13T14:59:07.369Z,9.33
2018-02-13T15:01:34.819Z,9.40
2018-02-13T15:04:02.282Z,8.90
2018-02-13T15:06:29.646Z,8.87
2018-02-13T15:08:57.034Z,9.80
2018-02-13T15:11:24.520Z,8.50
2018-02-13T15:13:52.049Z,8.47
2018-02-13T15:16:19.418Z,8.33
2018-02-13T15:18:46.875Z,8.13
2018-02-13T15:21:14.261Z,8.17
2018-02-13T15:23:41.682Z,8.07
2018-02-13T15:26:09.058Z,8.57
2018-02-13T15:28:36.437Z,9.03
2018-02-13T15:31:03.814Z,9.07
2018-02-13T15:33:31.219Z,8.27
2018-02-13T15:35:58.575Z,8.57
2018-02-13T15:38:26.011Z,9.63
2018-02-13T15:40:53.442Z,8.80
2018-02-13T15:43:20.909Z,8.47
2018-02-13T15:45:48.317Z,8.73
2018-02-13T15:48:15.722Z,8.57
2018-02-13T15:50:43.825Z,9.10
2018-02-13T15:53:11.235Z,8.40
2018-02-13T15:55:38.604Z,8.10
2018-02-13T15:58:06.000Z,8.47
2018-02-13T16:00:33.375Z,8.50
2018-02-13T16:03:00.751Z,8.40
2018-02-13T16:05:28.273Z,7.50
2018-02-13T16:07:55.619Z,8.17
2018-02-13T16:10:22.995Z,7.60
2018-02-13T16:12:50.344Z,8.03
2018-02-13T16:15:17.739Z,8.17
2018-02-13T16:17:45.078Z,8.50
2018-02-13T16:20:12.417Z,7.90
2018-02-13T16:22:39.824Z,7.70
2018-02-13T16:25:07.178Z,8.03
2018-02-13T16:27:34.586Z,8.13
2018-02-13T16:30:01.941Z,7.40
2018-02-13T16:32:29.332Z,7.63
2018-02-13T16:34:56.687Z,7.27
2018-02-13T16:37:24.029Z,7.80
2018-02-13T16:39:51.514Z,7.27
2018-02-13T16:42:18.866Z,7.33
2018-02-13T16:44:46.227Z,8.00
2018-02-13T16:47:13.566Z,7.60
2018-02-13T16:49:41.013Z,7.57
2018-02-13T16:52:08.343Z,7.63
2018-02-13T16:54:35.702Z,7.40
2018-02-13T16:57:03.048Z,7.13
2018-02-13T16:59:30.387Z,7.27
2018-02-13T17:01:57.810Z,6.80
2018-02-13T17:04:25.256Z,7.27
2018-02-13T17:06:52.602Z,7.40
2018-02-13T17:09:19.999Z,7.20
2018-02-13T17:11:47.346Z,7.23
2018-02-13T17:14:14.762Z,7.37
2018-02-13T17:16:42.135Z,7.13
2018-02-13T17:19:09.662Z,6.90
2018-02-13T17:21:37.127Z,7.03
2018-02-13T17:24:04.610Z,6.50
2018-02-13T17:26:31.967Z,7.33
2018-02-13T17:28:59.343Z,7.23
2018-02-13T17:31:27.138Z,7.00
2018-02-13T17:33:54.570Z,6.50
2018-02-13T17:36:21.963Z,6.43
2018-02-13T17:38:49.343Z,6.77
2018-02-13T17:41:17.015Z,6.93
2018-02-13T17:43:44.405Z,6.97
2018-02-13T17:46:11.966Z,6.90
2018-02-13T17:48:39.476Z,6.40
2018-02-13T17:51:06.899Z,7.00
2018-02-13T17:53:34.294Z,6.73
2018-02-13T17:56:01.676Z,6.67
2018-02-13T17:58:29.027Z,6.50
2018-02-13T18:00:56.544Z,6.63
2018-02-13T18:03:23.938Z,6.50
2018-02-13T18:05:51.290Z,6.67
2018-02-13T18:08:18.862Z,6.37
2018-02-13T18:10:46.402Z,6.57
2018-02-13T18:13:13.748Z,6.57
2018-02-13T18:15:41.188Z,6.67
2018-02-13T18:18:08.742Z,6.37
2018-02-13T18:20:36.099Z,6.63
2018-02-13T18:23:03.449Z,6.87
2018-02-13T18:25:30.789Z,6.30
2018-02-13T18:27:58.139Z,6.10
2018-02-13T18:30:25.550Z,6.87
2018-02-13T18:32:52.941Z,6.20
2018-02-13T18:35:20.341Z,6.37
2018-02-13T18:37:47.686Z,6.40
2018-02-13T18:40:15.031Z,6.50
2018-02-13T18:42:42.410Z,6.20
2018-02-13T18:45:09.797Z,6.70
2018-02-13T18:47:37.182Z,6.60
2018-02-13T18:50:04.516Z,6.63
2018-02-13T18:54:59.228Z,6.40
2018-02-13T18:57:26.621Z,6.80
2018-02-13T18:59:54.057Z,6.27
2018-02-13T19:02:21.442Z,6.60
2018-02-13T19:04:48.787Z,6.80
2018-02-13T19:07:16.166Z,6.30
2018-02-13T19:09:43.509Z,6.83
2018-02-13T19:12:10.840Z,6.50
2018-02-13T19:14:38.214Z,6.33
2018-02-13T19:19:32.952Z,6.80
2018-02-13T19:22:00.331Z,6.03
2018-02-13T19:24:27.691Z,6.17
2018-02-13T19:26:55.028Z,6.80
2018-02-13T19:29:22.374Z,6.50
2018-02-13T19:31:49.784Z,6.83
2018-02-13T19:34:17.190Z,6.57
2018-02-13T19:36:44.545Z,6.47
2018-02-13T19:39:12.010Z,6.53
2018-02-13T19:41:39.362Z,6.23
2018-02-13T19:44:06.761Z,6.60
2018-02-13T19:46:34.106Z,6.23
2018-02-13T19:49:01.481Z,6.83
2018-02-13T19:51:28.822Z,6.07
2018-02-13T19:53:56.197Z,6.50
2018-02-13T19:56:23.639Z,6.07
2018-02-13T19:58:51.034Z,6.13
2018-02-13T20:01:18.374Z,6.10
2018-02-13T20:03:45.799Z,6.43
2018-02-13T20:06:13.139Z,6.23
2018-02-13T20:08:40.638Z,6.00
2018-02-13T20:11:08.010Z,6.00
2018-02-13T20:13:35.389Z,6.00
2018-02-13T20:16:02.788Z,5.90
2018-02-13T20:18:30.174Z,5.90
2018-02-13T20:20:57.537Z,5.73
2018-02-13T20:23:24.874Z,5.90
2018-02-13T20:25:52.433Z,6.17
2018-02-13T20:28:19.777Z,6.40
2018-02-13T20:30:47.278Z,5.70
2018-02-13T20:33:14.649Z,5.80
2018-02-13T20:35:42.104Z,5.83
2018-02-13T20:38:09.596Z,6.37
2018-02-13T20:40:36.961Z,6.00
2018-02-13T20:43:04.310Z,5.63
2018-02-13T20:45:31.666Z,6.00
2018-02-13T20:47:59.175Z,5.70
2018-02-13T20:50:26.562Z,5.60
2018-02-13T20:52:53.989Z,6.13
2018-02-13T20:55:21.325Z,5.83
2018-02-13T20:57:48.710Z,5.40
2018-02-13T21:00:16.100Z,5.93
2018-02-13T21:02:43.438Z,5.93
2018-02-13T21:05:10.853Z,5.77
2018-02-13T21:07:38.289Z,5.80
2018-02-13T21:10:05.657Z,5.33
2018-02-13T21:12:32.997Z,6.27
2018-02-13T21:15:00.335Z,5.93
2018-02-13T21:17:27.718Z,6.60
2018-02-13T21:19:55.054Z,6.20
2018-02-13T21:22:22.475Z,5.70
2018-02-13T21:24:49.893Z,5.73
2018-02-13T21:27:17.298Z,6.20
2018-02-13T21:29:44.736Z,5.93
2018-02-13T21:32:12.111Z,5.67
2018-02-13T21:34:39.509Z,5.63
2018-02-13T21:37:06.841Z,5.87
2018-02-13T21:39:34.178Z,6.10
2018-02-13T21:42:01.610Z,6.20
2018-02-13T21:44:28.948Z,6.37
2018-02-13T21:46:56.319Z,6.00
2018-02-13T21:49:23.647Z,6.50
2018-02-13T21:51:50.982Z,6.00
2018-02-13T21:54:18.352Z,6.07
2018-02-13T21:56:45.686Z,6.30
2018-02-13T21:59:13.027Z,6.67
2018-02-13T22:01:40.433Z,6.10
2018-02-13T22:04:07.790Z,6.50
2018-02-13T22:06:35.165Z,6.67
2018-02-13T22:09:02.502Z,6.67
2018-02-13T22:11:29.883Z,6.07
2018-02-13T22:13:57.230Z,6.10
2018-02-13T22:16:24.574Z,6.53
2018-02-13T22:18:51.962Z,6.13
2018-02-13T22:21:19.342Z,6.40
2018-02-13T22:23:46.757Z,6.23
2018-02-13T22:26:14.093Z,5.67
2018-02-13T22:28:41.440Z,6.33
2018-02-13T22:31:08.822Z,6.13
2018-02-13T22:33:36.164Z,5.93
2018-02-13T22:36:03.627Z,6.07
2018-02-13T22:38:31.009Z,6.53
2018-02-13T22:40:58.442Z,6.27
2018-02-13T22:43:25.778Z,5.80
2018-02-13T22:45:53.109Z,5.83
2018-02-13T22:48:20.463Z,6.13
2018-02-13T22:50:47.869Z,6.47
2018-02-13T22:53:15.250Z,6.17
2018-02-13T22:55:42.590Z,6.37
2018-02-13T22:58:09.974Z,6.53
2018-02-13T23:00:37.306Z,6.57
2018-02-13T23:03:04.717Z,6.40
2018-02-13T23:05:32.063Z,6.70
2018-02-13T23:07:59.489Z,6.33
2018-02-13T23:10:26.823Z,6.73
2018-02-13T23:12:54.206Z,6.50
2018-02-13T23:15:21.586Z,6.73
2018-02-13T23:17:48.970Z,6.83
2018-02-13T23:20:16.392Z,6.30
2018-02-13T23:22:43.759Z,6.70
2018-02-13T23:25:11.219Z,7.10
2018-02-13T23:27:38.550Z,6.80
2018-02-13T23:30:05.897Z,6.53
2018-02-13T23:32:33.237Z,6.90
2018-02-13T23:35:00.591Z,6.90
2018-02-13T23:37:27.921Z,7.17
2018-02-13T23:39:55.256Z,6.73
2018-02-13T23:42:22.642Z,7.53
2018-02-13T23:44:49.989Z,6.90
2018-02-13T23:47:17.367Z,7.03
2018-02-13T23:49:44.702Z,6.50
2018-02-13T23:52:12.118Z,7.03
2018-02-13T23:54:39.511Z,7.23
2018-02-13T23:57:06.891Z,7.30
2018-02-13T23:59:34.310Z,7.40
